<?xml version="1.0" encoding="UTF-8"?>
<gpx xmlns="http://www.topografix.com/GPX/1/1" xmlns:xsi="http://www.w3.org/2001/XMLSchema-instance" creator="komoot gpx writer" version="1.1" xsi:schemaLocation="http://www.topografix.com/GPX/1/1 http://www.topografix.com/GPX/1/1/gpx.xsd">

	<metadata>
		<name>Tour</name>
		<desc/>
		<link href="http://www.komoot.de">
			<text>komoot homepage</text>
			<type>text/html</type>
		</link>
	</metadata>
	
<trk>
<name>Tour</name>
<trkseg>
<trkpt lat="52.2602119" lon="10.0661683">
<ele>99.65985107421875</ele>
<time>2012-05-28T15:14:08Z</time>
</trkpt>
<trkpt lat="52.2600833" lon="10.0658402">
<ele>99.61983489990234</ele>
<time>2012-05-28T15:14:15Z</time>
</trkpt>
<trkpt lat="52.2600342" lon="10.0652995">
<ele>98.37687683105469</ele>
<time>2012-05-28T15:14:24Z</time>
</trkpt>
<trkpt lat="52.2600507" lon="10.0647871">
<ele>98.13562774658203</ele>
<time>2012-05-28T15:14:33Z</time>
</trkpt>
<trkpt lat="52.2600979" lon="10.0642097">
<ele>97.24420166015625</ele>
<time>2012-05-28T15:14:42Z</time>
</trkpt>
<trkpt lat="52.2601917" lon="10.0635851">
<ele>95.61975860595703</ele>
<time>2012-05-28T15:14:53Z</time>
</trkpt>
<trkpt lat="52.2602439" lon="10.0629549">
<ele>94.38156127929688</ele>
<time>2012-05-28T15:15:03Z</time>
</trkpt>
<trkpt lat="52.2602485" lon="10.0624745">
<ele>94.21080017089844</ele>
<time>2012-05-28T15:15:11Z</time>
</trkpt>
<trkpt lat="52.2602342" lon="10.0622186">
<ele>94.48979187011719</ele>
<time>2012-05-28T15:15:16Z</time>
</trkpt>
<trkpt lat="52.2602807" lon="10.0622082">
<ele>94.25999450683594</ele>
<time>2012-05-28T15:15:17Z</time>
</trkpt>
<trkpt lat="52.2602576" lon="10.0621114">
<ele>94.52945709228516</ele>
<time>2012-05-28T15:15:19Z</time>
</trkpt>
<trkpt lat="52.2599804" lon="10.0609487">
<ele>97.05644226074219</ele>
<time>2012-05-28T15:15:43Z</time>
</trkpt>
<trkpt lat="52.2596642" lon="10.0596011">
<ele>93.4363784790039</ele>
<time>2012-05-28T15:16:06Z</time>
</trkpt>
<trkpt lat="52.2596457" lon="10.0595161">
<ele>93.30892181396484</ele>
<time>2012-05-28T15:16:07Z</time>
</trkpt>
<trkpt lat="52.2592767" lon="10.0580495">
<ele>94.1580810546875</ele>
<time>2012-05-28T15:16:36Z</time>
</trkpt>
<trkpt lat="52.2591664" lon="10.0579843">
<ele>94.87994384765625</ele>
<time>2012-05-28T15:16:39Z</time>
</trkpt>
<trkpt lat="52.2591299" lon="10.0572855">
<ele>95.63236236572266</ele>
<time>2012-05-28T15:16:52Z</time>
</trkpt>
<trkpt lat="52.2589989" lon="10.055267">
<ele>95.5651626586914</ele>
<time>2012-05-28T15:17:28Z</time>
</trkpt>
<trkpt lat="52.2587783" lon="10.0538273">
<ele>91.17639923095703</ele>
<time>2012-05-28T15:17:51Z</time>
</trkpt>
<trkpt lat="52.2586663" lon="10.05342">
<ele>90.24467468261719</ele>
<time>2012-05-28T15:17:58Z</time>
</trkpt>
<trkpt lat="52.2586481" lon="10.0533539">
<ele>90.21057891845703</ele>
<time>2012-05-28T15:18:00Z</time>
</trkpt>
<trkpt lat="52.2556129" lon="10.0414007">
<ele>85.38325500488281</ele>
<time>2012-05-28T15:21:43Z</time>
</trkpt>
<trkpt lat="52.2554571" lon="10.0409124">
<ele>84.78463745117188</ele>
<time>2012-05-28T15:21:52Z</time>
</trkpt>
<trkpt lat="52.2549688" lon="10.0400945">
<ele>85.02976989746094</ele>
<time>2012-05-28T15:22:12Z</time>
</trkpt>
<trkpt lat="52.2544475" lon="10.0395882">
<ele>88.49347686767578</ele>
<time>2012-05-28T15:22:32Z</time>
</trkpt>
<trkpt lat="52.2539412" lon="10.0392886">
<ele>86.23161315917969</ele>
<time>2012-05-28T15:22:46Z</time>
</trkpt>
<trkpt lat="52.2528118" lon="10.0389351">
<ele>88.54735565185547</ele>
<time>2012-05-28T15:23:20Z</time>
</trkpt>
<trkpt lat="52.2523983" lon="10.0386745">
<ele>92.3265609741211</ele>
<time>2012-05-28T15:23:36Z</time>
</trkpt>
<trkpt lat="52.2516044" lon="10.0377158">
<ele>94.800537109375</ele>
<time>2012-05-28T15:24:05Z</time>
</trkpt>
<trkpt lat="52.2511341" lon="10.0369069">
<ele>92.21261596679688</ele>
<time>2012-05-28T15:24:23Z</time>
</trkpt>
<trkpt lat="52.2508435" lon="10.0362448">
<ele>90.0</ele>
<time>2012-05-28T15:24:36Z</time>
</trkpt>
<trkpt lat="52.2507517" lon="10.0361694">
<ele>90.0</ele>
<time>2012-05-28T15:24:39Z</time>
</trkpt>
<trkpt lat="52.2507696" lon="10.0361028">
<ele>90.0</ele>
<time>2012-05-28T15:24:41Z</time>
</trkpt>
<trkpt lat="52.2507663" lon="10.0360088">
<ele>90.0</ele>
<time>2012-05-28T15:24:42Z</time>
</trkpt>
<trkpt lat="52.2507442" lon="10.0358381">
<ele>89.91351318359375</ele>
<time>2012-05-28T15:24:45Z</time>
</trkpt>
<trkpt lat="52.2506503" lon="10.0355573">
<ele>89.42581939697266</ele>
<time>2012-05-28T15:24:50Z</time>
</trkpt>
<trkpt lat="52.2505996" lon="10.0353684">
<ele>89.059326171875</ele>
<time>2012-05-28T15:24:54Z</time>
</trkpt>
<trkpt lat="52.250419" lon="10.0346553">
<ele>89.9916000366211</ele>
<time>2012-05-28T15:25:08Z</time>
</trkpt>
<trkpt lat="52.2503013" lon="10.0341905">
<ele>90.41532135009766</ele>
<time>2012-05-28T15:25:17Z</time>
</trkpt>
<trkpt lat="52.2499525" lon="10.0328208">
<ele>90.6709976196289</ele>
<time>2012-05-28T15:25:43Z</time>
</trkpt>
<trkpt lat="52.2497141" lon="10.0314526">
<ele>92.52924346923828</ele>
<time>2012-05-28T15:26:09Z</time>
</trkpt>
<trkpt lat="52.2496514" lon="10.0308837">
<ele>92.26933288574219</ele>
<time>2012-05-28T15:26:19Z</time>
</trkpt>
<trkpt lat="52.2496254" lon="10.0308289">
<ele>92.2593002319336</ele>
<time>2012-05-28T15:26:20Z</time>
</trkpt>
<trkpt lat="52.2496127" lon="10.0307453">
<ele>92.0580062866211</ele>
<time>2012-05-28T15:26:22Z</time>
</trkpt>
<trkpt lat="52.2496559" lon="10.0306655">
<ele>91.73876190185547</ele>
<time>2012-05-28T15:26:23Z</time>
</trkpt>
<trkpt lat="52.2496878" lon="10.0305517">
<ele>91.62391662597656</ele>
<time>2012-05-28T15:26:26Z</time>
</trkpt>
<trkpt lat="52.2497021" lon="10.0301536">
<ele>90.62539672851562</ele>
<time>2012-05-28T15:26:32Z</time>
</trkpt>
<trkpt lat="52.2496817" lon="10.0292268">
<ele>88.18312072753906</ele>
<time>2012-05-28T15:26:47Z</time>
</trkpt>
<trkpt lat="52.249614" lon="10.0283791">
<ele>88.59136962890625</ele>
<time>2012-05-28T15:27:02Z</time>
</trkpt>
<trkpt lat="52.2494384" lon="10.0274825">
<ele>85.9587631225586</ele>
<time>2012-05-28T15:27:17Z</time>
</trkpt>
<trkpt lat="52.2490686" lon="10.0267544">
<ele>85.21786499023438</ele>
<time>2012-05-28T15:27:33Z</time>
</trkpt>
<trkpt lat="52.2490011" lon="10.0266294">
<ele>84.92375946044922</ele>
<time>2012-05-28T15:27:36Z</time>
</trkpt>
<trkpt lat="52.2486077" lon="10.0255278">
<ele>85.81961059570312</ele>
<time>2012-05-28T15:27:59Z</time>
</trkpt>
<trkpt lat="52.2482187" lon="10.0258734">
<ele>86.91268157958984</ele>
<time>2012-05-28T15:28:12Z</time>
</trkpt>
<trkpt lat="52.2477728" lon="10.0246319">
<ele>84.99373626708984</ele>
<time>2012-05-28T15:28:36Z</time>
</trkpt>
<trkpt lat="52.2477091" lon="10.0242444">
<ele>84.74723815917969</ele>
<time>2012-05-28T15:28:43Z</time>
</trkpt>
<trkpt lat="52.2476032" lon="10.0238505">
<ele>84.9535140991211</ele>
<time>2012-05-28T15:28:50Z</time>
</trkpt>
<trkpt lat="52.2476268" lon="10.0235704">
<ele>85.0</ele>
<time>2012-05-28T15:28:55Z</time>
</trkpt>
<trkpt lat="52.2476105" lon="10.0232105">
<ele>84.9037094116211</ele>
<time>2012-05-28T15:29:02Z</time>
</trkpt>
<trkpt lat="52.2475551" lon="10.0227963">
<ele>85.13168334960938</ele>
<time>2012-05-28T15:29:09Z</time>
</trkpt>
<trkpt lat="52.2475434" lon="10.0227329">
<ele>85.31780242919922</ele>
<time>2012-05-28T15:29:10Z</time>
</trkpt>
<trkpt lat="52.2474237" lon="10.0220877">
<ele>85.2288589477539</ele>
<time>2012-05-28T15:29:22Z</time>
</trkpt>
<trkpt lat="52.2473253" lon="10.0216358">
<ele>83.3387451171875</ele>
<time>2012-05-28T15:29:30Z</time>
</trkpt>
<trkpt lat="52.2472529" lon="10.0215403">
<ele>83.02751922607422</ele>
<time>2012-05-28T15:29:32Z</time>
</trkpt>
<trkpt lat="52.2471611" lon="10.02115">
<ele>82.63999938964844</ele>
<time>2012-05-28T15:29:39Z</time>
</trkpt>
<trkpt lat="52.246753" lon="10.0194521">
<ele>82.71098327636719</ele>
<time>2012-05-28T15:30:11Z</time>
</trkpt>
<trkpt lat="52.246364" lon="10.0182193">
<ele>83.0</ele>
<time>2012-05-28T15:30:36Z</time>
</trkpt>
<trkpt lat="52.2451506" lon="10.0142884">
<ele>80.85391998291016</ele>
<time>2012-05-28T15:31:51Z</time>
</trkpt>
<trkpt lat="52.2443831" lon="10.0117477">
<ele>80.72084045410156</ele>
<time>2012-05-28T15:32:41Z</time>
</trkpt>
<trkpt lat="52.2440592" lon="10.0109875">
<ele>81.99378204345703</ele>
<time>2012-05-28T15:32:58Z</time>
</trkpt>
<trkpt lat="52.2436597" lon="10.0101445">
<ele>82.66835021972656</ele>
<time>2012-05-28T15:33:17Z</time>
</trkpt>
<trkpt lat="52.2431671" lon="10.009105">
<ele>83.9726333618164</ele>
<time>2012-05-28T15:33:41Z</time>
</trkpt>
<trkpt lat="52.2425512" lon="10.0078672">
<ele>84.01248168945312</ele>
<time>2012-05-28T15:34:08Z</time>
</trkpt>
<trkpt lat="52.2422907" lon="10.0073386">
<ele>79.43254089355469</ele>
<time>2012-05-28T15:34:18Z</time>
</trkpt>
<trkpt lat="52.2422197" lon="10.0072354">
<ele>78.7596664428711</ele>
<time>2012-05-28T15:34:20Z</time>
</trkpt>
<trkpt lat="52.2420933" lon="10.0072097">
<ele>78.05220031738281</ele>
<time>2012-05-28T15:34:24Z</time>
</trkpt>
<trkpt lat="52.2420099" lon="10.0070329">
<ele>77.73564147949219</ele>
<time>2012-05-28T15:34:27Z</time>
</trkpt>
<trkpt lat="52.2418789" lon="10.0067084">
<ele>77.2640380859375</ele>
<time>2012-05-28T15:34:34Z</time>
</trkpt>
<trkpt lat="52.2416784" lon="10.0062739">
<ele>77.4561996459961</ele>
<time>2012-05-28T15:34:43Z</time>
</trkpt>
<trkpt lat="52.2399855" lon="10.0026536">
<ele>84.0</ele>
<time>2012-05-28T15:36:07Z</time>
</trkpt>
<trkpt lat="52.2389507" lon="10.0007467">
<ele>83.55496215820312</ele>
<time>2012-05-28T15:36:52Z</time>
</trkpt>
<trkpt lat="52.2384571" lon="9.9998372">
<ele>84.83252716064453</ele>
<time>2012-05-28T15:37:14Z</time>
</trkpt>
<trkpt lat="52.2378501" lon="9.9989549">
<ele>80.05886840820312</ele>
<time>2012-05-28T15:37:34Z</time>
</trkpt>
<trkpt lat="52.2370747" lon="9.9978279">
<ele>72.71151733398438</ele>
<time>2012-05-28T15:38:00Z</time>
</trkpt>
<trkpt lat="52.2355365" lon="9.9954737">
<ele>69.11674499511719</ele>
<time>2012-05-28T15:38:58Z</time>
</trkpt>
<trkpt lat="52.2350914" lon="9.9945267">
<ele>66.0</ele>
<time>2012-05-28T15:39:17Z</time>
</trkpt>
<trkpt lat="52.2348679" lon="9.9941013">
<ele>65.26467895507812</ele>
<time>2012-05-28T15:39:26Z</time>
</trkpt>
<trkpt lat="52.2341037" lon="9.9925815">
<ele>66.24675750732422</ele>
<time>2012-05-28T15:40:01Z</time>
</trkpt>
<trkpt lat="52.2337429" lon="9.9919301">
<ele>67.43689727783203</ele>
<time>2012-05-28T15:40:17Z</time>
</trkpt>
<trkpt lat="52.2332451" lon="9.9912334">
<ele>66.94023895263672</ele>
<time>2012-05-28T15:40:35Z</time>
</trkpt>
<trkpt lat="52.2327127" lon="9.9905465">
<ele>68.12535858154297</ele>
<time>2012-05-28T15:40:56Z</time>
</trkpt>
<trkpt lat="52.2320172" lon="9.989954">
<ele>66.44422912597656</ele>
<time>2012-05-28T15:41:17Z</time>
</trkpt>
<trkpt lat="52.2318675" lon="9.9898853">
<ele>65.37834167480469</ele>
<time>2012-05-28T15:41:21Z</time>
</trkpt>
<trkpt lat="52.2318068" lon="9.9898717">
<ele>64.97100830078125</ele>
<time>2012-05-28T15:41:22Z</time>
</trkpt>
<trkpt lat="52.2317514" lon="9.9898594">
<ele>64.61007690429688</ele>
<time>2012-05-28T15:41:24Z</time>
</trkpt>
<trkpt lat="52.231605" lon="9.9897909">
<ele>63.555999755859375</ele>
<time>2012-05-28T15:41:27Z</time>
</trkpt>
<trkpt lat="52.2314319" lon="9.9895934">
<ele>62.987491607666016</ele>
<time>2012-05-28T15:41:33Z</time>
</trkpt>
<trkpt lat="52.2312358" lon="9.989166">
<ele>65.45127868652344</ele>
<time>2012-05-28T15:41:44Z</time>
</trkpt>
<trkpt lat="52.2310641" lon="9.9889426">
<ele>65.53597259521484</ele>
<time>2012-05-28T15:41:51Z</time>
</trkpt>
<trkpt lat="52.2309236" lon="9.988833">
<ele>65.52616119384766</ele>
<time>2012-05-28T15:41:55Z</time>
</trkpt>
<trkpt lat="52.2307546" lon="9.9887094">
<ele>65.10205078125</ele>
<time>2012-05-28T15:42:00Z</time>
</trkpt>
<trkpt lat="52.2305851" lon="9.9886475">
<ele>63.595333099365234</ele>
<time>2012-05-28T15:42:04Z</time>
</trkpt>
<trkpt lat="52.230311" lon="9.9885923">
<ele>61.07476043701172</ele>
<time>2012-05-28T15:42:11Z</time>
</trkpt>
<trkpt lat="52.2299972" lon="9.9885868">
<ele>59.07743835449219</ele>
<time>2012-05-28T15:42:18Z</time>
</trkpt>
<trkpt lat="52.2299381" lon="9.9885858">
<ele>58.86827850341797</ele>
<time>2012-05-28T15:42:20Z</time>
</trkpt>
<trkpt lat="52.2297834" lon="9.9885809">
<ele>58.888519287109375</ele>
<time>2012-05-28T15:42:24Z</time>
</trkpt>
<trkpt lat="52.2297266" lon="9.9885168">
<ele>59.323760986328125</ele>
<time>2012-05-28T15:42:27Z</time>
</trkpt>
<trkpt lat="52.2296732" lon="9.9884105">
<ele>59.82025146484375</ele>
<time>2012-05-28T15:42:29Z</time>
</trkpt>
<trkpt lat="52.2295893" lon="9.9881888">
<ele>60.04180145263672</ele>
<time>2012-05-28T15:42:34Z</time>
</trkpt>
<trkpt lat="52.2294914" lon="9.9881295">
<ele>60.15642166137695</ele>
<time>2012-05-28T15:42:37Z</time>
</trkpt>
<trkpt lat="52.2293197" lon="9.9880621">
<ele>60.024261474609375</ele>
<time>2012-05-28T15:42:42Z</time>
</trkpt>
<trkpt lat="52.2291518" lon="9.9880097">
<ele>60.0</ele>
<time>2012-05-28T15:42:47Z</time>
</trkpt>
<trkpt lat="52.2288381" lon="9.987919">
<ele>60.0</ele>
<time>2012-05-28T15:42:56Z</time>
</trkpt>
<trkpt lat="52.2285594" lon="9.9878728">
<ele>60.108360290527344</ele>
<time>2012-05-28T15:43:04Z</time>
</trkpt>
<trkpt lat="52.2284304" lon="9.987789">
<ele>60.61016082763672</ele>
<time>2012-05-28T15:43:08Z</time>
</trkpt>
<trkpt lat="52.2273345" lon="9.9872452">
<ele>63.71260070800781</ele>
<time>2012-05-28T15:43:43Z</time>
</trkpt>
<trkpt lat="52.2262215" lon="9.9863361">
<ele>63.76083755493164</ele>
<time>2012-05-28T15:44:19Z</time>
</trkpt>
<trkpt lat="52.2243251" lon="9.9843528">
<ele>62.9002799987793</ele>
<time>2012-05-28T15:45:22Z</time>
</trkpt>
<trkpt lat="52.2242762" lon="9.9844068">
<ele>62.635520935058594</ele>
<time>2012-05-28T15:45:24Z</time>
</trkpt>
<trkpt lat="52.2241616" lon="9.9844498">
<ele>62.48072052001953</ele>
<time>2012-05-28T15:45:27Z</time>
</trkpt>
<trkpt lat="52.2240883" lon="9.9843608">
<ele>62.80112075805664</ele>
<time>2012-05-28T15:45:30Z</time>
</trkpt>
<trkpt lat="52.2240773" lon="9.984158">
<ele>63.53120040893555</ele>
<time>2012-05-28T15:45:34Z</time>
</trkpt>
<trkpt lat="52.2240341" lon="9.9840239">
<ele>64.02728271484375</ele>
<time>2012-05-28T15:45:37Z</time>
</trkpt>
<trkpt lat="52.2239389" lon="9.9838544">
<ele>65.56828308105469</ele>
<time>2012-05-28T15:45:42Z</time>
</trkpt>
<trkpt lat="52.2232013" lon="9.9830552">
<ele>76.45448303222656</ele>
<time>2012-05-28T15:46:16Z</time>
</trkpt>
<trkpt lat="52.2216943" lon="9.9813491">
<ele>70.6117935180664</ele>
<time>2012-05-28T15:47:05Z</time>
</trkpt>
<trkpt lat="52.2200673" lon="9.9795317">
<ele>74.2337875366211</ele>
<time>2012-05-28T15:48:04Z</time>
</trkpt>
<trkpt lat="52.2178238" lon="9.9770406">
<ele>66.81951904296875</ele>
<time>2012-05-28T15:49:17Z</time>
</trkpt>
<trkpt lat="52.2177682" lon="9.976841">
<ele>67.33792114257812</ele>
<time>2012-05-28T15:49:21Z</time>
</trkpt>
<trkpt lat="52.21681" lon="9.9757371">
<ele>72.81443786621094</ele>
<time>2012-05-28T15:49:58Z</time>
</trkpt>
<trkpt lat="52.2167694" lon="9.9758731">
<ele>72.48699951171875</ele>
<time>2012-05-28T15:50:00Z</time>
</trkpt>
<trkpt lat="52.2166955" lon="9.9759229">
<ele>72.57376098632812</ele>
<time>2012-05-28T15:50:03Z</time>
</trkpt>
<trkpt lat="52.2166002" lon="9.9758621">
<ele>73.1357192993164</ele>
<time>2012-05-28T15:50:06Z</time>
</trkpt>
<trkpt lat="52.2165214" lon="9.975736">
<ele>73.85040283203125</ele>
<time>2012-05-28T15:50:10Z</time>
</trkpt>
<trkpt lat="52.2162828" lon="9.9753362">
<ele>76.17160034179688</ele>
<time>2012-05-28T15:50:21Z</time>
</trkpt>
<trkpt lat="52.2153672" lon="9.9744335">
<ele>74.00515747070312</ele>
<time>2012-05-28T15:50:50Z</time>
</trkpt>
<trkpt lat="52.2141228" lon="9.9736211">
<ele>66.03678131103516</ele>
<time>2012-05-28T15:51:24Z</time>
</trkpt>
<trkpt lat="52.21342" lon="9.9732987">
<ele>63.56332015991211</ele>
<time>2012-05-28T15:51:43Z</time>
</trkpt>
<trkpt lat="52.2125173" lon="9.9730279">
<ele>68.4749984741211</ele>
<time>2012-05-28T15:52:13Z</time>
</trkpt>
<trkpt lat="52.2118596" lon="9.9729183">
<ele>70.18868255615234</ele>
<time>2012-05-28T15:52:33Z</time>
</trkpt>
<trkpt lat="52.2117436" lon="9.972957">
<ele>69.44110870361328</ele>
<time>2012-05-28T15:52:36Z</time>
</trkpt>
<trkpt lat="52.2116275" lon="9.9729956">
<ele>68.6159896850586</ele>
<time>2012-05-28T15:52:39Z</time>
</trkpt>
<trkpt lat="52.2115302" lon="9.972987">
<ele>68.01522827148438</ele>
<time>2012-05-28T15:52:41Z</time>
</trkpt>
<trkpt lat="52.2113309" lon="9.9728216">
<ele>66.58248138427734</ele>
<time>2012-05-28T15:52:47Z</time>
</trkpt>
<trkpt lat="52.2077911" lon="9.9725765">
<ele>70.7725601196289</ele>
<time>2012-05-28T15:54:30Z</time>
</trkpt>
<trkpt lat="52.2074966" lon="9.9725666">
<ele>70.12693786621094</ele>
<time>2012-05-28T15:54:38Z</time>
</trkpt>
<trkpt lat="52.2072049" lon="9.9725127">
<ele>69.13075256347656</ele>
<time>2012-05-28T15:54:46Z</time>
</trkpt>
<trkpt lat="52.2070141" lon="9.9726175">
<ele>68.05780792236328</ele>
<time>2012-05-28T15:54:51Z</time>
</trkpt>
<trkpt lat="52.2069677" lon="9.9725348">
<ele>68.21873474121094</ele>
<time>2012-05-28T15:54:53Z</time>
</trkpt>
<trkpt lat="52.2068507" lon="9.972504">
<ele>68.07891845703125</ele>
<time>2012-05-28T15:54:56Z</time>
</trkpt>
<trkpt lat="52.2011323" lon="9.9724302">
<ele>66.32756042480469</ele>
<time>2012-05-28T15:57:38Z</time>
</trkpt>
<trkpt lat="52.2003813" lon="9.9724794">
<ele>66.77458190917969</ele>
<time>2012-05-28T15:58:00Z</time>
</trkpt>
<trkpt lat="52.1984423" lon="9.9727693">
<ele>79.42279815673828</ele>
<time>2012-05-28T15:59:04Z</time>
</trkpt>
<trkpt lat="52.1982792" lon="9.9729289">
<ele>78.29167938232422</ele>
<time>2012-05-28T15:59:09Z</time>
</trkpt>
<trkpt lat="52.1982029" lon="9.9730465">
<ele>78.0162124633789</ele>
<time>2012-05-28T15:59:12Z</time>
</trkpt>
<trkpt lat="52.1979991" lon="9.973053">
<ele>75.8902816772461</ele>
<time>2012-05-28T15:59:17Z</time>
</trkpt>
<trkpt lat="52.1978083" lon="9.9729037">
<ele>74.31311798095703</ele>
<time>2012-05-28T15:59:22Z</time>
</trkpt>
<trkpt lat="52.1966142" lon="9.9731027">
<ele>76.17855834960938</ele>
<time>2012-05-28T15:59:57Z</time>
</trkpt>
<trkpt lat="52.1962603" lon="9.9731679">
<ele>79.7311782836914</ele>
<time>2012-05-28T16:00:10Z</time>
</trkpt>
<trkpt lat="52.1958137" lon="9.9732005">
<ele>83.7556381225586</ele>
<time>2012-05-28T16:00:26Z</time>
</trkpt>
<trkpt lat="52.1950076" lon="9.9730942">
<ele>84.64320373535156</ele>
<time>2012-05-28T16:00:49Z</time>
</trkpt>
<trkpt lat="52.1943736" lon="9.9728241">
<ele>90.93187713623047</ele>
<time>2012-05-28T16:01:13Z</time>
</trkpt>
<trkpt lat="52.1942505" lon="9.972828">
<ele>92.00553131103516</ele>
<time>2012-05-28T16:01:17Z</time>
</trkpt>
<trkpt lat="52.1942259" lon="9.9728303">
<ele>92.15415954589844</ele>
<time>2012-05-28T16:01:18Z</time>
</trkpt>
<trkpt lat="52.1940797" lon="9.9728614">
<ele>92.93766021728516</ele>
<time>2012-05-28T16:01:23Z</time>
</trkpt>
<trkpt lat="52.1939918" lon="9.972925">
<ele>93.1295166015625</ele>
<time>2012-05-28T16:01:26Z</time>
</trkpt>
<trkpt lat="52.1940066" lon="9.973016">
<ele>93.07624053955078</ele>
<time>2012-05-28T16:01:27Z</time>
</trkpt>
<trkpt lat="52.1939955" lon="9.9731108">
<ele>93.11620330810547</ele>
<time>2012-05-28T16:01:29Z</time>
</trkpt>
<trkpt lat="52.1940104" lon="9.9732391">
<ele>93.06256103515625</ele>
<time>2012-05-28T16:01:31Z</time>
</trkpt>
<trkpt lat="52.1940457" lon="9.9733748">
<ele>92.91284942626953</ele>
<time>2012-05-28T16:01:34Z</time>
</trkpt>
<trkpt lat="52.1940959" lon="9.9734603">
<ele>92.74423217773438</ele>
<time>2012-05-28T16:01:36Z</time>
</trkpt>
<trkpt lat="52.1942929" lon="9.9737391">
<ele>92.0893325805664</ele>
<time>2012-05-28T16:01:43Z</time>
</trkpt>
<trkpt lat="52.1943282" lon="9.9738302">
<ele>91.8604965209961</ele>
<time>2012-05-28T16:01:44Z</time>
</trkpt>
<trkpt lat="52.1943966" lon="9.974009">
<ele>91.65008544921875</ele>
<time>2012-05-28T16:01:48Z</time>
</trkpt>
<trkpt lat="52.1944238" lon="9.9741316">
<ele>91.94808197021484</ele>
<time>2012-05-28T16:01:50Z</time>
</trkpt>
<trkpt lat="52.1944511" lon="9.9742087">
<ele>92.12735748291016</ele>
<time>2012-05-28T16:01:52Z</time>
</trkpt>
<trkpt lat="52.1945509" lon="9.9744492">
<ele>93.1510009765625</ele>
<time>2012-05-28T16:01:58Z</time>
</trkpt>
<trkpt lat="52.1946008" lon="9.9746852">
<ele>93.87423706054688</ele>
<time>2012-05-28T16:02:03Z</time>
</trkpt>
<trkpt lat="52.194687" lon="9.9749847">
<ele>93.08755493164062</ele>
<time>2012-05-28T16:02:08Z</time>
</trkpt>
<trkpt lat="52.1947687" lon="9.9753886">
<ele>90.80001068115234</ele>
<time>2012-05-28T16:02:14Z</time>
</trkpt>
<trkpt lat="52.1947733" lon="9.9755066">
<ele>89.9847183227539</ele>
<time>2012-05-28T16:02:16Z</time>
</trkpt>
<trkpt lat="52.1946462" lon="9.9756836">
<ele>89.62544250488281</ele>
<time>2012-05-28T16:02:21Z</time>
</trkpt>
<trkpt lat="52.1946507" lon="9.9757698">
<ele>89.17788696289062</ele>
<time>2012-05-28T16:02:22Z</time>
</trkpt>
<trkpt lat="52.194687" lon="9.9758152">
<ele>88.6566390991211</ele>
<time>2012-05-28T16:02:23Z</time>
</trkpt>
<trkpt lat="52.1945145" lon="9.9760265">
<ele>89.10082244873047</ele>
<time>2012-05-28T16:02:29Z</time>
</trkpt>
<trkpt lat="52.1945376" lon="9.9761112">
<ele>88.74669647216797</ele>
<time>2012-05-28T16:02:31Z</time>
</trkpt>
<trkpt lat="52.1944984" lon="9.9761677">
<ele>88.81720733642578</ele>
<time>2012-05-28T16:02:32Z</time>
</trkpt>
<trkpt lat="52.1931794" lon="9.9774222">
<ele>83.0</ele>
<time>2012-05-28T16:03:12Z</time>
</trkpt>
<trkpt lat="52.1929856" lon="9.9776381">
<ele>83.0</ele>
<time>2012-05-28T16:03:19Z</time>
</trkpt>
<trkpt lat="52.1930071" lon="9.9783333">
<ele>83.1627426147461</ele>
<time>2012-05-28T16:03:31Z</time>
</trkpt>
<trkpt lat="52.1930563" lon="9.9795151">
<ele>85.00536346435547</ele>
<time>2012-05-28T16:03:53Z</time>
</trkpt>
<trkpt lat="52.1933311" lon="9.9816136">
<ele>86.96784210205078</ele>
<time>2012-05-28T16:04:32Z</time>
</trkpt>
<trkpt lat="52.1933705" lon="9.983022">
<ele>89.91439819335938</ele>
<time>2012-05-28T16:04:59Z</time>
</trkpt>
<trkpt lat="52.1934338" lon="9.9830354">
<ele>90.87416076660156</ele>
<time>2012-05-28T16:05:01Z</time>
</trkpt>
<trkpt lat="52.1934914" lon="9.9830823">
<ele>91.73435974121094</ele>
<time>2012-05-28T16:05:04Z</time>
</trkpt>
<trkpt lat="52.1935604" lon="9.9831222">
<ele>92.37480163574219</ele>
<time>2012-05-28T16:05:06Z</time>
</trkpt>
<trkpt lat="52.1937925" lon="9.9833298">
<ele>95.28056335449219</ele>
<time>2012-05-28T16:05:16Z</time>
</trkpt>
<trkpt lat="52.1939347" lon="9.9836596">
<ele>98.00440216064453</ele>
<time>2012-05-28T16:05:25Z</time>
</trkpt>
<trkpt lat="52.1939647" lon="9.983855">
<ele>98.92384338378906</ele>
<time>2012-05-28T16:05:30Z</time>
</trkpt>
<trkpt lat="52.1941743" lon="9.9840015">
<ele>100.96035766601562</ele>
<time>2012-05-28T16:05:38Z</time>
</trkpt>
<trkpt lat="52.1943676" lon="9.9842847">
<ele>103.37164306640625</ele>
<time>2012-05-28T16:05:47Z</time>
</trkpt>
<trkpt lat="52.1944139" lon="9.9844778">
<ele>104.40016174316406</ele>
<time>2012-05-28T16:05:51Z</time>
</trkpt>
<trkpt lat="52.1944887" lon="9.9849175">
<ele>104.77496337890625</ele>
<time>2012-05-28T16:05:59Z</time>
</trkpt>
<trkpt lat="52.1945561" lon="9.9853694">
<ele>103.87603759765625</ele>
<time>2012-05-28T16:06:07Z</time>
</trkpt>
<trkpt lat="52.194631" lon="9.9856259">
<ele>102.83672332763672</ele>
<time>2012-05-28T16:06:11Z</time>
</trkpt>
<trkpt lat="52.1947657" lon="9.985748">
<ele>103.1202392578125</ele>
<time>2012-05-28T16:06:16Z</time>
</trkpt>
<trkpt lat="52.1949567" lon="9.9858373">
<ele>103.82984161376953</ele>
<time>2012-05-28T16:06:22Z</time>
</trkpt>
<trkpt lat="52.1951745" lon="9.9859909">
<ele>103.9413833618164</ele>
<time>2012-05-28T16:06:29Z</time>
</trkpt>
<trkpt lat="52.1953099" lon="9.986087">
<ele>103.84117889404297</ele>
<time>2012-05-28T16:06:33Z</time>
</trkpt>
<trkpt lat="52.1954747" lon="9.9863366">
<ele>104.16797637939453</ele>
<time>2012-05-28T16:06:40Z</time>
</trkpt>
<trkpt lat="52.195563" lon="9.9865767">
<ele>105.17611694335938</ele>
<time>2012-05-28T16:06:45Z</time>
</trkpt>
<trkpt lat="52.1956689" lon="9.9868359">
<ele>106.10923767089844</ele>
<time>2012-05-28T16:06:51Z</time>
</trkpt>
<trkpt lat="52.1956925" lon="9.9871528">
<ele>107.0</ele>
<time>2012-05-28T16:06:58Z</time>
</trkpt>
<trkpt lat="52.1956925" lon="9.9875369">
<ele>107.62841033935547</ele>
<time>2012-05-28T16:07:05Z</time>
</trkpt>
<trkpt lat="52.1957337" lon="9.9877673">
<ele>108.4622802734375</ele>
<time>2012-05-28T16:07:10Z</time>
</trkpt>
<trkpt lat="52.1958455" lon="9.9880554">
<ele>109.27159881591797</ele>
<time>2012-05-28T16:07:16Z</time>
</trkpt>
<trkpt lat="52.1959102" lon="9.9882283">
<ele>109.77671813964844</ele>
<time>2012-05-28T16:07:20Z</time>
</trkpt>
<trkpt lat="52.1960574" lon="9.9885931">
<ele>110.306640625</ele>
<time>2012-05-28T16:07:28Z</time>
</trkpt>
<trkpt lat="52.1961794" lon="9.9887282">
<ele>110.74584197998047</ele>
<time>2012-05-28T16:07:32Z</time>
</trkpt>
<trkpt lat="52.1964341" lon="9.9890925">
<ele>107.62429809570312</ele>
<time>2012-05-28T16:07:40Z</time>
</trkpt>
<trkpt lat="52.1966048" lon="9.9894381">
<ele>103.82330322265625</ele>
<time>2012-05-28T16:07:46Z</time>
</trkpt>
<trkpt lat="52.1967519" lon="9.9897454">
<ele>102.38632202148438</ele>
<time>2012-05-28T16:07:52Z</time>
</trkpt>
<trkpt lat="52.1969461" lon="9.9899028">
<ele>100.55805206298828</ele>
<time>2012-05-28T16:07:58Z</time>
</trkpt>
<trkpt lat="52.1970932" lon="9.9899851">
<ele>99.30428314208984</ele>
<time>2012-05-28T16:08:01Z</time>
</trkpt>
<trkpt lat="52.1972123" lon="9.9900588">
<ele>97.85456085205078</ele>
<time>2012-05-28T16:08:04Z</time>
</trkpt>
<trkpt lat="52.1972627" lon="9.9902237">
<ele>97.91959381103516</ele>
<time>2012-05-28T16:08:07Z</time>
</trkpt>
<trkpt lat="52.1973117" lon="9.9904124">
<ele>98.50565338134766</ele>
<time>2012-05-28T16:08:11Z</time>
</trkpt>
<trkpt lat="52.1973185" lon="9.9904487">
<ele>98.55783081054688</ele>
<time>2012-05-28T16:08:12Z</time>
</trkpt>
<trkpt lat="52.197338" lon="9.9905579">
<ele>98.71573638916016</ele>
<time>2012-05-28T16:08:14Z</time>
</trkpt>
<trkpt lat="52.1974082" lon="9.9907036">
<ele>98.52998352050781</ele>
<time>2012-05-28T16:08:17Z</time>
</trkpt>
<trkpt lat="52.1975935" lon="9.9916178">
<ele>102.43452453613281</ele>
<time>2012-05-28T16:08:37Z</time>
</trkpt>
<trkpt lat="52.1976347" lon="9.9920403">
<ele>102.16766357421875</ele>
<time>2012-05-28T16:08:44Z</time>
</trkpt>
<trkpt lat="52.1976701" lon="9.9923188">
<ele>102.0</ele>
<time>2012-05-28T16:08:49Z</time>
</trkpt>
<trkpt lat="52.1977501" lon="9.9924306">
<ele>101.89984893798828</ele>
<time>2012-05-28T16:08:52Z</time>
</trkpt>
<trkpt lat="52.1978009" lon="9.9926569">
<ele>101.48159790039062</ele>
<time>2012-05-28T16:08:56Z</time>
</trkpt>
<trkpt lat="52.1978415" lon="9.9929772">
<ele>102.27059936523438</ele>
<time>2012-05-28T16:09:02Z</time>
</trkpt>
<trkpt lat="52.1978787" lon="9.9932256">
<ele>102.24884033203125</ele>
<time>2012-05-28T16:09:07Z</time>
</trkpt>
<trkpt lat="52.1979058" lon="9.9935017">
<ele>103.1410903930664</ele>
<time>2012-05-28T16:09:12Z</time>
</trkpt>
<trkpt lat="52.1979397" lon="9.9936757">
<ele>103.64959716796875</ele>
<time>2012-05-28T16:09:16Z</time>
</trkpt>
<trkpt lat="52.1979899" lon="9.9937927">
<ele>103.77688598632812</ele>
<time>2012-05-28T16:09:18Z</time>
</trkpt>
<trkpt lat="52.1980545" lon="9.9940034">
<ele>103.95645141601562</ele>
<time>2012-05-28T16:09:23Z</time>
</trkpt>
<trkpt lat="52.1981263" lon="9.9942141">
<ele>104.0</ele>
<time>2012-05-28T16:09:27Z</time>
</trkpt>
<trkpt lat="52.1981765" lon="9.994378">
<ele>104.24394989013672</ele>
<time>2012-05-28T16:09:30Z</time>
</trkpt>
<trkpt lat="52.1982339" lon="9.9945068">
<ele>104.72447967529297</ele>
<time>2012-05-28T16:09:33Z</time>
</trkpt>
<trkpt lat="52.19832" lon="9.9947994">
<ele>104.92533111572266</ele>
<time>2012-05-28T16:09:39Z</time>
</trkpt>
<trkpt lat="52.1984491" lon="9.9950218">
<ele>105.30319213867188</ele>
<time>2012-05-28T16:09:45Z</time>
</trkpt>
<trkpt lat="52.1985783" lon="9.9952325">
<ele>104.66300201416016</ele>
<time>2012-05-28T16:09:50Z</time>
</trkpt>
<trkpt lat="52.1987146" lon="9.9954666">
<ele>104.0</ele>
<time>2012-05-28T16:09:55Z</time>
</trkpt>
<trkpt lat="52.1988652" lon="9.9956188">
<ele>104.3017807006836</ele>
<time>2012-05-28T16:10:00Z</time>
</trkpt>
<trkpt lat="52.1989944" lon="9.9957944">
<ele>104.56324005126953</ele>
<time>2012-05-28T16:10:05Z</time>
</trkpt>
<trkpt lat="52.1991164" lon="9.9959231">
<ele>104.12042236328125</ele>
<time>2012-05-28T16:10:09Z</time>
</trkpt>
<trkpt lat="52.1992096" lon="9.9961104">
<ele>103.34879302978516</ele>
<time>2012-05-28T16:10:13Z</time>
</trkpt>
<trkpt lat="52.1993101" lon="9.9962392">
<ele>102.04440307617188</ele>
<time>2012-05-28T16:10:16Z</time>
</trkpt>
<trkpt lat="52.1994033" lon="9.9963562">
<ele>100.77938842773438</ele>
<time>2012-05-28T16:10:18Z</time>
</trkpt>
<trkpt lat="52.1994966" lon="9.9965552">
<ele>98.64055633544922</ele>
<time>2012-05-28T16:10:22Z</time>
</trkpt>
<trkpt lat="52.199719" lon="9.9969766">
<ele>91.9882583618164</ele>
<time>2012-05-28T16:10:29Z</time>
</trkpt>
<trkpt lat="52.1998266" lon="9.9970937">
<ele>90.14115905761719</ele>
<time>2012-05-28T16:10:31Z</time>
</trkpt>
<trkpt lat="52.199905" lon="9.9971351">
<ele>88.83836364746094</ele>
<time>2012-05-28T16:10:33Z</time>
</trkpt>
<trkpt lat="52.2000692" lon="9.9975219">
<ele>83.59496307373047</ele>
<time>2012-05-28T16:10:39Z</time>
</trkpt>
<trkpt lat="52.2005053" lon="9.9987257">
<ele>78.02791595458984</ele>
<time>2012-05-28T16:11:00Z</time>
</trkpt>
<trkpt lat="52.2007007" lon="9.999153">
<ele>78.47332000732422</ele>
<time>2012-05-28T16:11:10Z</time>
</trkpt>
<trkpt lat="52.2008065" lon="9.9994298">
<ele>79.40339660644531</ele>
<time>2012-05-28T16:11:16Z</time>
</trkpt>
<trkpt lat="52.2010822" lon="9.9999346">
<ele>80.39591979980469</ele>
<time>2012-05-28T16:11:29Z</time>
</trkpt>
<trkpt lat="52.2015572" lon="10.0005878">
<ele>80.34325408935547</ele>
<time>2012-05-28T16:11:47Z</time>
</trkpt>
<trkpt lat="52.2023256" lon="10.0017251">
<ele>80.61954498291016</ele>
<time>2012-05-28T16:12:16Z</time>
</trkpt>
<trkpt lat="52.203309" lon="10.0032091">
<ele>80.3596420288086</ele>
<time>2012-05-28T16:12:54Z</time>
</trkpt>
<trkpt lat="52.2035508" lon="10.0079427">
<ele>83.83907318115234</ele>
<time>2012-05-28T16:14:20Z</time>
</trkpt>
<trkpt lat="52.2041978" lon="10.0078912">
<ele>83.35235595703125</ele>
<time>2012-05-28T16:14:38Z</time>
</trkpt>
<trkpt lat="52.2036751" lon="10.0103558">
<ele>82.3006820678711</ele>
<time>2012-05-28T16:15:23Z</time>
</trkpt>
<trkpt lat="52.2036865" lon="10.0105343">
<ele>82.54280090332031</ele>
<time>2012-05-28T16:15:26Z</time>
</trkpt>
<trkpt lat="52.2042506" lon="10.0117855">
<ele>80.69080352783203</ele>
<time>2012-05-28T16:15:52Z</time>
</trkpt>
<trkpt lat="52.2044693" lon="10.0120136">
<ele>82.47247314453125</ele>
<time>2012-05-28T16:16:01Z</time>
</trkpt>
<trkpt lat="52.2046742" lon="10.0121843">
<ele>84.80950164794922</ele>
<time>2012-05-28T16:16:09Z</time>
</trkpt>
<trkpt lat="52.2049647" lon="10.0124578">
<ele>87.964111328125</ele>
<time>2012-05-28T16:16:21Z</time>
</trkpt>
<trkpt lat="52.2052611" lon="10.0127369">
<ele>89.79280090332031</ele>
<time>2012-05-28T16:16:32Z</time>
</trkpt>
<trkpt lat="52.2056953" lon="10.0131457">
<ele>89.99691772460938</ele>
<time>2012-05-28T16:16:47Z</time>
</trkpt>
<trkpt lat="52.2058679" lon="10.0132925">
<ele>89.37555694580078</ele>
<time>2012-05-28T16:16:52Z</time>
</trkpt>
<trkpt lat="52.2060267" lon="10.0133799">
<ele>89.19612121582031</ele>
<time>2012-05-28T16:16:57Z</time>
</trkpt>
<trkpt lat="52.2060757" lon="10.0133981">
<ele>89.37252044677734</ele>
<time>2012-05-28T16:16:58Z</time>
</trkpt>
<trkpt lat="52.2061307" lon="10.0133971">
<ele>89.57051849365234</ele>
<time>2012-05-28T16:17:00Z</time>
</trkpt>
<trkpt lat="52.2062925" lon="10.0135663">
<ele>90.0</ele>
<time>2012-05-28T16:17:06Z</time>
</trkpt>
<trkpt lat="52.2062121" lon="10.0147811">
<ele>89.13643646240234</ele>
<time>2012-05-28T16:17:26Z</time>
</trkpt>
<trkpt lat="52.2059547" lon="10.0178011">
<ele>89.0</ele>
<time>2012-05-28T16:18:20Z</time>
</trkpt>
<trkpt lat="52.2058742" lon="10.018745">
<ele>90.62911987304688</ele>
<time>2012-05-28T16:18:37Z</time>
</trkpt>
<trkpt lat="52.20585" lon="10.0190346">
<ele>91.58455657958984</ele>
<time>2012-05-28T16:18:43Z</time>
</trkpt>
<trkpt lat="52.2055467" lon="10.0225095">
<ele>98.4681167602539</ele>
<time>2012-05-28T16:19:49Z</time>
</trkpt>
<trkpt lat="52.2055211" lon="10.022831">
<ele>98.80754852294922</ele>
<time>2012-05-28T16:19:55Z</time>
</trkpt>
<trkpt lat="52.2052756" lon="10.0259135">
<ele>99.2114028930664</ele>
<time>2012-05-28T16:20:50Z</time>
</trkpt>
<trkpt lat="52.2052475" lon="10.0263124">
<ele>99.0</ele>
<time>2012-05-28T16:20:57Z</time>
</trkpt>
<trkpt lat="52.2051198" lon="10.0281226">
<ele>98.0</ele>
<time>2012-05-28T16:21:28Z</time>
</trkpt>
<trkpt lat="52.2048853" lon="10.0307962">
<ele>97.0</ele>
<time>2012-05-28T16:22:15Z</time>
</trkpt>
<trkpt lat="52.2049337" lon="10.0322567">
<ele>95.3758773803711</ele>
<time>2012-05-28T16:22:39Z</time>
</trkpt>
<trkpt lat="52.2051283" lon="10.0335356">
<ele>94.71299743652344</ele>
<time>2012-05-28T16:23:02Z</time>
</trkpt>
<trkpt lat="52.2052778" lon="10.0345008">
<ele>91.64850616455078</ele>
<time>2012-05-28T16:23:18Z</time>
</trkpt>
<trkpt lat="52.2052196" lon="10.0353387">
<ele>91.70944213867188</ele>
<time>2012-05-28T16:23:32Z</time>
</trkpt>
<trkpt lat="52.2050585" lon="10.036071">
<ele>91.93379974365234</ele>
<time>2012-05-28T16:23:46Z</time>
</trkpt>
<trkpt lat="52.2052237" lon="10.0364349">
<ele>90.6946792602539</ele>
<time>2012-05-28T16:23:53Z</time>
</trkpt>
<trkpt lat="52.2052563" lon="10.0365276">
<ele>90.57731628417969</ele>
<time>2012-05-28T16:23:55Z</time>
</trkpt>
<trkpt lat="52.2053655" lon="10.0367756">
<ele>90.18419647216797</ele>
<time>2012-05-28T16:24:00Z</time>
</trkpt>
<trkpt lat="52.2055223" lon="10.0369649">
<ele>88.88394165039062</ele>
<time>2012-05-28T16:24:05Z</time>
</trkpt>
<trkpt lat="52.2057287" lon="10.0370794">
<ele>87.75335693359375</ele>
<time>2012-05-28T16:24:11Z</time>
</trkpt>
<trkpt lat="52.2060461" lon="10.0370939">
<ele>85.73403930664062</ele>
<time>2012-05-28T16:24:19Z</time>
</trkpt>
<trkpt lat="52.2064609" lon="10.037073">
<ele>85.02824401855469</ele>
<time>2012-05-28T16:24:30Z</time>
</trkpt>
<trkpt lat="52.2083243" lon="10.0369799">
<ele>91.665771484375</ele>
<time>2012-05-28T16:25:27Z</time>
</trkpt>
<trkpt lat="52.2086355" lon="10.0369816">
<ele>91.78472137451172</ele>
<time>2012-05-28T16:25:36Z</time>
</trkpt>
<trkpt lat="52.2108653" lon="10.0368901">
<ele>88.69564056396484</ele>
<time>2012-05-28T16:26:38Z</time>
</trkpt>
<trkpt lat="52.2112841" lon="10.0368832">
<ele>87.87724304199219</ele>
<time>2012-05-28T16:26:50Z</time>
</trkpt>
<trkpt lat="52.211806" lon="10.0368232">
<ele>85.99690246582031</ele>
<time>2012-05-28T16:27:03Z</time>
</trkpt>
<trkpt lat="52.211872" lon="10.0376429">
<ele>86.76425170898438</ele>
<time>2012-05-28T16:27:18Z</time>
</trkpt>
<trkpt lat="52.2125616" lon="10.0380104">
<ele>85.95311737060547</ele>
<time>2012-05-28T16:27:38Z</time>
</trkpt>
<trkpt lat="52.2150623" lon="10.0388305">
<ele>82.28980255126953</ele>
<time>2012-05-28T16:28:49Z</time>
</trkpt>
<trkpt lat="52.2176941" lon="10.0388923">
<ele>79.09693908691406</ele>
<time>2012-05-28T16:30:02Z</time>
</trkpt>
<trkpt lat="52.217631" lon="10.0389716">
<ele>78.97734069824219</ele>
<time>2012-05-28T16:30:04Z</time>
</trkpt>
<trkpt lat="52.2176117" lon="10.0390916">
<ele>78.9021224975586</ele>
<time>2012-05-28T16:30:06Z</time>
</trkpt>
<trkpt lat="52.2177427" lon="10.0406568">
<ele>78.37371826171875</ele>
<time>2012-05-28T16:30:34Z</time>
</trkpt>
<trkpt lat="52.2180131" lon="10.0406054">
<ele>79.34716033935547</ele>
<time>2012-05-28T16:30:42Z</time>
</trkpt>
<trkpt lat="52.2198093" lon="10.0398858">
<ele>82.2841567993164</ele>
<time>2012-05-28T16:31:37Z</time>
</trkpt>
<trkpt lat="52.2203682" lon="10.039667">
<ele>79.04776000976562</ele>
<time>2012-05-28T16:31:51Z</time>
</trkpt>
<trkpt lat="52.2211172" lon="10.0394266">
<ele>76.2697525024414</ele>
<time>2012-05-28T16:32:11Z</time>
</trkpt>
<trkpt lat="52.221517" lon="10.0443531">
<ele>73.66432189941406</ele>
<time>2012-05-28T16:33:37Z</time>
</trkpt>
<trkpt lat="52.2217259" lon="10.0466451">
<ele>69.0</ele>
<time>2012-05-28T16:34:14Z</time>
</trkpt>
<trkpt lat="52.2218885" lon="10.0480843">
<ele>69.0</ele>
<time>2012-05-28T16:34:40Z</time>
</trkpt>
<trkpt lat="52.2220753" lon="10.0502235">
<ele>66.02892303466797</ele>
<time>2012-05-28T16:35:16Z</time>
</trkpt>
<trkpt lat="52.2222359" lon="10.052063">
<ele>63.509037017822266</ele>
<time>2012-05-28T16:35:47Z</time>
</trkpt>
<trkpt lat="52.2226482" lon="10.056295">
<ele>63.067039489746094</ele>
<time>2012-05-28T16:37:02Z</time>
</trkpt>
<trkpt lat="52.2227077" lon="10.0564326">
<ele>63.49544143676758</ele>
<time>2012-05-28T16:37:05Z</time>
</trkpt>
<trkpt lat="52.2238636" lon="10.0575393">
<ele>64.2325210571289</ele>
<time>2012-05-28T16:37:44Z</time>
</trkpt>
<trkpt lat="52.2247619" lon="10.0581428">
<ele>63.81407928466797</ele>
<time>2012-05-28T16:38:11Z</time>
</trkpt>
<trkpt lat="52.2248998" lon="10.0582533">
<ele>64.0</ele>
<time>2012-05-28T16:38:16Z</time>
</trkpt>
<trkpt lat="52.2255427" lon="10.0591834">
<ele>66.56024169921875</ele>
<time>2012-05-28T16:38:42Z</time>
</trkpt>
<trkpt lat="52.2279102" lon="10.0553681">
<ele>62.02328109741211</ele>
<time>2012-05-28T16:40:14Z</time>
</trkpt>
<trkpt lat="52.229549" lon="10.0527278">
<ele>60.9604377746582</ele>
<time>2012-05-28T16:41:19Z</time>
</trkpt>
<trkpt lat="52.2315102" lon="10.0526098">
<ele>66.9563217163086</ele>
<time>2012-05-28T16:42:19Z</time>
</trkpt>
<trkpt lat="52.2316565" lon="10.0526127">
<ele>68.1153564453125</ele>
<time>2012-05-28T16:42:24Z</time>
</trkpt>
<trkpt lat="52.2319309" lon="10.0526182">
<ele>68.73133087158203</ele>
<time>2012-05-28T16:42:32Z</time>
</trkpt>
<trkpt lat="52.2337947" lon="10.0532572">
<ele>64.58451843261719</ele>
<time>2012-05-28T16:43:24Z</time>
</trkpt>
<trkpt lat="52.2337768" lon="10.0506286">
<ele>63.19295883178711</ele>
<time>2012-05-28T16:44:09Z</time>
</trkpt>
<trkpt lat="52.2393343" lon="10.0532237">
<ele>67.09442138671875</ele>
<time>2012-05-28T16:46:56Z</time>
</trkpt>
<trkpt lat="52.2393352" lon="10.0539829">
<ele>68.0</ele>
<time>2012-05-28T16:47:10Z</time>
</trkpt>
<trkpt lat="52.2393484" lon="10.055485">
<ele>68.84575653076172</ele>
<time>2012-05-28T16:47:37Z</time>
</trkpt>
<trkpt lat="52.2393874" lon="10.0566812">
<ele>65.9050521850586</ele>
<time>2012-05-28T16:47:56Z</time>
</trkpt>
<trkpt lat="52.2393893" lon="10.0568505">
<ele>65.55418395996094</ele>
<time>2012-05-28T16:47:59Z</time>
</trkpt>
<trkpt lat="52.2395085" lon="10.056924">
<ele>66.14967346191406</ele>
<time>2012-05-28T16:48:03Z</time>
</trkpt>
<trkpt lat="52.23973" lon="10.0570552">
<ele>67.05033111572266</ele>
<time>2012-05-28T16:48:10Z</time>
</trkpt>
<trkpt lat="52.2402958" lon="10.0574275">
<ele>66.67411804199219</ele>
<time>2012-05-28T16:48:28Z</time>
</trkpt>
<trkpt lat="52.2407307" lon="10.0574994">
<ele>65.432861328125</ele>
<time>2012-05-28T16:48:39Z</time>
</trkpt>
<trkpt lat="52.2415675" lon="10.0575803">
<ele>67.14299774169922</ele>
<time>2012-05-28T16:49:04Z</time>
</trkpt>
<trkpt lat="52.242107" lon="10.0577062">
<ele>68.0</ele>
<time>2012-05-28T16:49:20Z</time>
</trkpt>
<trkpt lat="52.2426331" lon="10.0579177">
<ele>68.0</ele>
<time>2012-05-28T16:49:36Z</time>
</trkpt>
<trkpt lat="52.2428226" lon="10.0579939">
<ele>68.0</ele>
<time>2012-05-28T16:49:41Z</time>
</trkpt>
<trkpt lat="52.2429368" lon="10.0580415">
<ele>68.0</ele>
<time>2012-05-28T16:49:45Z</time>
</trkpt>
<trkpt lat="52.2435747" lon="10.0582707">
<ele>68.3689193725586</ele>
<time>2012-05-28T16:50:04Z</time>
</trkpt>
<trkpt lat="52.2439952" lon="10.0584254">
<ele>69.73393249511719</ele>
<time>2012-05-28T16:50:17Z</time>
</trkpt>
<trkpt lat="52.2441746" lon="10.0582514">
<ele>69.20503997802734</ele>
<time>2012-05-28T16:50:22Z</time>
</trkpt>
<trkpt lat="52.2444028" lon="10.0579727">
<ele>69.07061767578125</ele>
<time>2012-05-28T16:50:30Z</time>
</trkpt>
<trkpt lat="52.2446255" lon="10.0575273">
<ele>68.0908203125</ele>
<time>2012-05-28T16:50:40Z</time>
</trkpt>
<trkpt lat="52.2455411" lon="10.0578944">
<ele>70.47187805175781</ele>
<time>2012-05-28T16:51:08Z</time>
</trkpt>
<trkpt lat="52.2457816" lon="10.057993">
<ele>69.9610366821289</ele>
<time>2012-05-28T16:51:15Z</time>
</trkpt>
<trkpt lat="52.2459453" lon="10.058165">
<ele>69.99092102050781</ele>
<time>2012-05-28T16:51:21Z</time>
</trkpt>
<trkpt lat="52.2480576" lon="10.0589648">
<ele>71.38095092773438</ele>
<time>2012-05-28T16:52:23Z</time>
</trkpt>
<trkpt lat="52.2503088" lon="10.060727">
<ele>85.18839263916016</ele>
<time>2012-05-28T16:53:44Z</time>
</trkpt>
<trkpt lat="52.2526965" lon="10.0626104">
<ele>78.3099594116211</ele>
<time>2012-05-28T16:54:55Z</time>
</trkpt>
<trkpt lat="52.253337" lon="10.0631157">
<ele>78.08016204833984</ele>
<time>2012-05-28T16:55:15Z</time>
</trkpt>
<trkpt lat="52.2535451" lon="10.0632712">
<ele>77.709716796875</ele>
<time>2012-05-28T16:55:22Z</time>
</trkpt>
<trkpt lat="52.2538332" lon="10.0634711">
<ele>77.30638885498047</ele>
<time>2012-05-28T16:55:30Z</time>
</trkpt>
<trkpt lat="52.2539909" lon="10.0635121">
<ele>77.74273681640625</ele>
<time>2012-05-28T16:55:35Z</time>
</trkpt>
<trkpt lat="52.2541294" lon="10.0634631">
<ele>78.398681640625</ele>
<time>2012-05-28T16:55:40Z</time>
</trkpt>
<trkpt lat="52.254807" lon="10.0632947">
<ele>82.61039733886719</ele>
<time>2012-05-28T16:56:02Z</time>
</trkpt>
<trkpt lat="52.2550977" lon="10.0632729">
<ele>84.46288299560547</ele>
<time>2012-05-28T16:56:12Z</time>
</trkpt>
<trkpt lat="52.2554622" lon="10.063189">
<ele>86.0</ele>
<time>2012-05-28T16:56:23Z</time>
</trkpt>
<trkpt lat="52.2562481" lon="10.062788">
<ele>86.46002960205078</ele>
<time>2012-05-28T16:56:47Z</time>
</trkpt>
<trkpt lat="52.2574554" lon="10.0626397">
<ele>99.01638793945312</ele>
<time>2012-05-28T16:57:31Z</time>
</trkpt>
<trkpt lat="52.2575803" lon="10.0626746">
<ele>100.34012603759766</ele>
<time>2012-05-28T16:57:36Z</time>
</trkpt>
<trkpt lat="52.2576559" lon="10.0626596">
<ele>101.12704467773438</ele>
<time>2012-05-28T16:57:39Z</time>
</trkpt>
<trkpt lat="52.2577806" lon="10.0626259">
<ele>101.97355651855469</ele>
<time>2012-05-28T16:57:43Z</time>
</trkpt>
<trkpt lat="52.2578039" lon="10.0626424">
<ele>102.19558715820312</ele>
<time>2012-05-28T16:57:44Z</time>
</trkpt>
<trkpt lat="52.2579068" lon="10.0627125">
<ele>103.1845474243164</ele>
<time>2012-05-28T16:57:48Z</time>
</trkpt>
<trkpt lat="52.2580397" lon="10.0627503">
<ele>103.84400177001953</ele>
<time>2012-05-28T16:57:52Z</time>
</trkpt>
<trkpt lat="52.2581653" lon="10.0627781">
<ele>104.396240234375</ele>
<time>2012-05-28T16:57:56Z</time>
</trkpt>
<trkpt lat="52.258305" lon="10.0627967">
<ele>104.56812286376953</ele>
<time>2012-05-28T16:58:00Z</time>
</trkpt>
<trkpt lat="52.2583879" lon="10.0628484">
<ele>104.75424194335938</ele>
<time>2012-05-28T16:58:03Z</time>
</trkpt>
<trkpt lat="52.2584709" lon="10.0629081">
<ele>104.96916198730469</ele>
<time>2012-05-28T16:58:05Z</time>
</trkpt>
<trkpt lat="52.2585798" lon="10.0626532">
<ele>103.66423797607422</ele>
<time>2012-05-28T16:58:10Z</time>
</trkpt>
<trkpt lat="52.2586638" lon="10.0625788">
<ele>103.09400177001953</ele>
<time>2012-05-28T16:58:12Z</time>
</trkpt>
<trkpt lat="52.2587694" lon="10.062533">
<ele>102.54895782470703</ele>
<time>2012-05-28T16:58:15Z</time>
</trkpt>
<trkpt lat="52.2596857" lon="10.0623356">
<ele>98.20496368408203</ele>
<time>2012-05-28T16:58:39Z</time>
</trkpt>
<trkpt lat="52.2598619" lon="10.062298">
<ele>96.99432373046875</ele>
<time>2012-05-28T16:58:43Z</time>
</trkpt>
<trkpt lat="52.2602342" lon="10.0622186">
<ele>94.48979187011719</ele>
<time>2012-05-28T16:58:53Z</time>
</trkpt>
<trkpt lat="52.2602485" lon="10.0624745">
<ele>94.21080017089844</ele>
<time>2012-05-28T16:58:57Z</time>
</trkpt>
<trkpt lat="52.2602439" lon="10.0629549">
<ele>94.38156127929688</ele>
<time>2012-05-28T16:59:06Z</time>
</trkpt>
<trkpt lat="52.2601917" lon="10.0635851">
<ele>95.61975860595703</ele>
<time>2012-05-28T16:59:17Z</time>
</trkpt>
<trkpt lat="52.2600979" lon="10.0642097">
<ele>97.24420166015625</ele>
<time>2012-05-28T16:59:30Z</time>
</trkpt>
<trkpt lat="52.2600507" lon="10.0647871">
<ele>98.13562774658203</ele>
<time>2012-05-28T16:59:41Z</time>
</trkpt>
<trkpt lat="52.2600342" lon="10.0652995">
<ele>98.37687683105469</ele>
<time>2012-05-28T16:59:50Z</time>
</trkpt>
<trkpt lat="52.2600833" lon="10.0658402">
<ele>99.61983489990234</ele>
<time>2012-05-28T17:00:00Z</time>
</trkpt>
<trkpt lat="52.2602119" lon="10.0661683">
<ele>99.65985107421875</ele>
<time>2012-05-28T17:00:07Z</time>
</trkpt>
</trkseg>
</trk>
</gpx>
